createdAt,value
2015-12-08T00:00:55.182Z,99.9
2015-12-08T00:01:55.226Z,99.9
2015-12-08T00:02:55.088Z,99.9
2015-12-08T00:03:55.028Z,99.9
2015-12-08T00:04:54.985Z,99.9
2015-12-08T00:05:54.925Z,99.9
2015-12-08T00:06:54.881Z,99.9
2015-12-08T00:07:54.836Z,99.9
2015-12-08T00:08:54.774Z,99.9
2015-12-08T00:09:54.730Z,99.9
2015-12-08T00:10:54.654Z,99.9
2015-12-08T00:11:54.612Z,99.9
2015-12-08T00:12:54.569Z,99.9
2015-12-08T00:13:54.510Z,99.9
2015-12-08T00:14:54.450Z,99.9
2015-12-08T00:15:54.405Z,99.9
2015-12-08T00:16:54.343Z,99.9
2015-12-08T00:17:54.299Z,99.9
2015-12-08T00:18:54.255Z,99.9
2015-12-08T00:19:54.196Z,99.9
2015-12-08T00:20:54.136Z,99.9
2015-12-08T00:21:54.109Z,99.9
2015-12-08T00:22:54.034Z,99.9
2015-12-08T00:23:53.990Z,99.9
2015-12-08T00:24:53.945Z,99.9
2015-12-08T00:25:53.882Z,99.9
2015-12-08T00:26:53.823Z,99.9
2015-12-08T00:27:53.796Z,99.9
2015-12-08T00:28:53.939Z,99.9
2015-12-08T00:29:53.660Z,99.9
2015-12-08T00:30:53.617Z,99.9
2015-12-08T00:31:53.552Z,99.9
2015-12-08T00:32:53.489Z,99.9
2015-12-08T00:33:53.431Z,99.9
2015-12-08T00:34:53.355Z,99.9
2015-12-08T00:35:53.282Z,99.9
2015-12-08T00:36:53.225Z,99.9
2015-12-08T00:37:53.161Z,99.9
2015-12-08T00:38:53.111Z,99.9
2015-12-08T00:39:53.062Z,99.9
2015-12-08T00:40:53.000Z,99.9
2015-12-08T00:41:52.935Z,99.9
2015-12-08T00:42:52.905Z,99.9
2015-12-08T00:43:52.827Z,99.9
2015-12-08T00:44:52.782Z,99.9
2015-12-08T00:45:52.720Z,99.9
2015-12-08T00:46:51.940Z,99.9
2015-12-08T00:47:52.630Z,99.9
2015-12-08T00:48:52.569Z,99.9
2015-12-08T00:49:52.509Z,99.9
2015-12-08T00:50:52.446Z,99.9
2015-12-08T00:51:52.401Z,99.9
2015-12-08T00:52:52.342Z,99.9
2015-12-08T00:53:52.313Z,99.9
2015-12-08T00:54:52.238Z,99.9
2015-12-08T00:55:52.179Z,99.9
2015-12-08T00:56:52.135Z,99.9
2015-12-08T00:57:52.075Z,99.9
2015-12-08T00:58:52.016Z,99.9
2015-12-08T00:59:51.957Z,99.9
2015-12-08T01:00:51.913Z,99.9
2015-12-08T01:01:51.850Z,99.9
2015-12-08T01:02:51.805Z,99.9
2015-12-08T01:03:51.747Z,99.9
2015-12-08T01:04:51.702Z,99.9
2015-12-08T01:05:51.643Z,99.9
2015-12-08T01:06:51.584Z,99.9
2015-12-08T01:07:51.539Z,99.9
2015-12-08T01:08:51.496Z,99.9
2015-12-08T01:09:51.452Z,99.9
2015-12-08T01:10:51.393Z,99.9
2015-12-08T01:11:51.333Z,99.9
2015-12-08T01:12:51.271Z,99.9
2015-12-08T01:13:51.242Z,99.9
2015-12-08T01:14:51.182Z,99.9
2015-12-08T01:15:51.124Z,99.9
2015-12-08T01:16:50.908Z,99.9
2015-12-08T01:17:51.019Z,99.9
2015-12-08T01:18:50.962Z,99.9
2015-12-08T01:19:50.917Z,99.9
2015-12-08T01:20:50.889Z,99.9
2015-12-08T01:21:50.795Z,99.9
2015-12-08T01:22:50.750Z,99.9
2015-12-08T01:23:50.690Z,99.9
2015-12-08T01:24:50.632Z,99.5
2015-12-08T01:25:50.572Z,99.8
2015-12-08T01:26:50.529Z,99.9
2015-12-08T01:27:50.484Z,99.9
2015-12-08T01:28:50.423Z,99.9
2015-12-08T01:29:50.364Z,99.9
2015-12-08T01:30:50.320Z,99.9
2015-12-08T01:31:50.259Z,99.9
2015-12-08T01:32:50.215Z,99.9
2015-12-08T01:33:50.156Z,99.9
2015-12-08T01:34:50.096Z,99.9
2015-12-08T01:35:50.052Z,99.9
2015-12-08T01:36:49.992Z,99.9
2015-12-08T01:37:49.948Z,99.9
2015-12-08T01:38:49.888Z,99.9
2015-12-08T01:39:49.828Z,99.9
2015-12-08T01:40:49.784Z,99
2015-12-08T01:41:49.740Z,99.8
2015-12-08T01:42:49.681Z,99.8
2015-12-08T01:43:49.636Z,99.7
2015-12-08T01:44:49.577Z,99.2
2015-12-08T01:45:49.517Z,99.7
2015-12-08T01:46:49.504Z,99.7
2015-12-08T01:47:49.397Z,98.9
2015-12-08T01:48:49.352Z,99.3
2015-12-08T01:49:49.293Z,99.1
2015-12-08T01:50:49.233Z,99.9
2015-12-08T01:51:49.189Z,99.9
2015-12-08T01:52:49.130Z,99.9
2015-12-08T01:53:48.335Z,99.9
2015-12-08T01:54:49.025Z,99.9
2015-12-08T01:55:48.981Z,99.9
2015-12-08T01:56:48.921Z,99.9
2015-12-08T01:57:48.877Z,99.9
2015-12-08T01:58:48.818Z,99.9
2015-12-08T01:59:48.758Z,99.9
2015-12-08T02:00:48.698Z,99.9
2015-12-08T02:01:48.653Z,99.9
2015-12-08T02:02:48.609Z,99.9
2015-12-08T02:03:48.550Z,99.9
2015-12-08T02:04:48.506Z,99.9
2015-12-08T02:05:48.539Z,99.9
2015-12-08T02:06:48.401Z,99.9
2015-12-08T02:07:48.357Z,99.9
2015-12-08T02:08:48.297Z,99.9
2015-12-08T02:09:48.237Z,99.9
2015-12-08T02:10:48.193Z,99.9
2015-12-08T02:11:48.134Z,99.9
2015-12-08T02:12:48.074Z,99.9
2015-12-08T02:13:48.014Z,99.9
2015-12-08T02:14:47.970Z,99.9
2015-12-08T02:15:47.911Z,99.9
2015-12-08T02:16:47.850Z,99.9
2015-12-08T02:17:47.822Z,99.9
2015-12-08T02:18:47.747Z,99.9
2015-12-08T02:19:47.702Z,99.9
2015-12-08T02:20:47.642Z,99.9
2015-12-08T02:21:47.583Z,99.9
2015-12-08T02:22:47.539Z,99.9
2015-12-08T02:23:47.478Z,99.9
2015-12-08T02:24:47.435Z,99.9
2015-12-08T02:25:47.375Z,99.9
2015-12-08T02:26:47.330Z,99.9
2015-12-08T02:27:47.271Z,99.9
2015-12-08T02:28:47.227Z,99.9
2015-12-08T02:29:47.167Z,99.9
2015-12-08T02:30:47.107Z,99.9
2015-12-08T02:31:47.063Z,99.9
2015-12-08T02:32:47.019Z,99.9
2015-12-08T02:33:46.944Z,99.9
2015-12-08T02:34:46.900Z,99.9
2015-12-08T02:35:46.840Z,99.9
2015-12-08T02:36:46.780Z,99.9
2015-12-08T02:37:46.735Z,99.9
2015-12-08T02:38:46.707Z,99.9
2015-12-08T02:39:46.616Z,99.9
2015-12-08T02:40:46.571Z,99.7
2015-12-08T02:41:46.512Z,99.9
2015-12-08T02:42:46.452Z,99.9
2015-12-08T02:43:46.408Z,99.9
2015-12-08T02:44:46.348Z,99.9
2015-12-08T02:45:46.304Z,99.9
2015-12-08T02:46:46.245Z,99.9
2015-12-08T02:47:46.200Z,99.9
2015-12-08T02:48:46.140Z,99.9
2015-12-08T02:49:46.078Z,99.9
2015-12-08T02:50:46.034Z,99.9
2015-12-08T02:51:45.974Z,99.9
2015-12-08T02:52:45.914Z,99.9
2015-12-08T02:53:46.103Z,99.9
2015-12-08T02:54:45.825Z,99.9
2015-12-08T02:55:45.767Z,99.9
2015-12-08T02:56:45.706Z,99.9
2015-12-08T02:57:45.646Z,99.9
2015-12-08T02:58:45.602Z,99.9
2015-12-08T02:59:45.558Z,99.9
2015-12-08T03:00:45.498Z,99.9
2015-12-08T03:01:45.454Z,99.9
2015-12-08T03:02:45.394Z,99.9
2015-12-08T03:03:45.334Z,99.9
2015-12-08T03:04:45.291Z,99.9
2015-12-08T03:05:45.230Z,99.5
2015-12-08T03:06:45.171Z,99.8
2015-12-08T03:07:45.111Z,99.1
2015-12-08T03:08:45.066Z,98.8
2015-12-08T03:09:45.008Z,99.5
2015-12-08T03:10:44.963Z,99.5
2015-12-08T03:11:44.902Z,99.6
2015-12-08T03:12:44.843Z,99.7
2015-12-08T03:13:44.783Z,99
2015-12-08T03:14:44.739Z,99.2
2015-12-08T03:15:44.679Z,98.8
2015-12-08T03:16:44.635Z,99
2015-12-08T03:17:44.576Z,98.8
2015-12-08T03:18:44.515Z,99
2015-12-08T03:19:44.487Z,98.9
2015-12-08T03:20:44.412Z,99.1
2015-12-08T03:21:44.367Z,99.1
2015-12-08T03:22:44.308Z,99.2
2015-12-08T03:23:44.250Z,99
2015-12-08T03:24:44.205Z,99.3
2015-12-08T03:25:44.145Z,98.9
2015-12-08T03:26:44.083Z,98.8
2015-12-08T03:27:44.039Z,98.6
2015-12-08T03:28:44.010Z,99.4
2015-12-08T03:29:43.935Z,98.6
2015-12-08T03:30:43.861Z,99.3
2015-12-08T03:31:43.801Z,99
2015-12-08T03:32:43.756Z,99.5
2015-12-08T03:33:43.712Z,99.9
2015-12-08T03:34:43.653Z,99.7
2015-12-08T03:35:43.592Z,99.7
2015-12-08T03:36:43.534Z,99.8
2015-12-08T03:37:43.489Z,99
2015-12-08T03:38:43.429Z,99.1
2015-12-08T03:39:43.370Z,98.6
2015-12-08T03:40:43.326Z,98.9
2015-12-08T03:41:43.266Z,99
2015-12-08T03:42:42.472Z,99
2015-12-08T03:43:43.162Z,98.5
2015-12-08T03:44:43.102Z,99
2015-12-08T03:45:43.073Z,99.4
2015-12-08T03:46:42.997Z,99.5
2015-12-08T03:47:42.953Z,99.5
2015-12-08T03:48:42.894Z,99.1
2015-12-08T03:49:42.833Z,98.3
2015-12-08T03:50:42.791Z,98.7
2015-12-08T03:51:42.746Z,98.9
2015-12-08T03:52:42.671Z,99.2
2015-12-08T03:53:42.627Z,98.2
2015-12-08T03:54:42.566Z,99.1
2015-12-08T03:55:42.507Z,99.1
2015-12-08T03:56:42.463Z,98.8
2015-12-08T03:57:42.435Z,98.9
2015-12-08T03:58:42.343Z,99.3
2015-12-08T03:59:42.283Z,99.5
2015-12-08T04:00:42.224Z,99.5
2015-12-08T04:01:42.180Z,99.4
2015-12-08T04:02:42.355Z,99.4
2015-12-08T04:03:42.060Z,99.4
2015-12-08T04:04:42.015Z,99.8
2015-12-08T04:05:41.956Z,99.7
2015-12-08T04:06:41.896Z,98.7
2015-12-08T04:07:41.852Z,99.2
2015-12-08T04:08:41.793Z,99.5
2015-12-08T04:09:41.732Z,98.8
2015-12-08T04:10:41.673Z,98.8
2015-12-08T04:11:41.629Z,98.3
2015-12-08T04:12:41.568Z,98.5
2015-12-08T04:13:41.509Z,98.4
2015-12-08T04:14:41.464Z,99
2015-12-08T04:15:41.405Z,99.5
2015-12-08T04:16:41.361Z,99.9
2015-12-08T04:17:41.317Z,99.9
2015-12-08T04:18:41.254Z,99.9
2015-12-08T04:19:41.195Z,99.9
2015-12-08T04:20:41.150Z,99.2
2015-12-08T04:21:41.091Z,99.4
2015-12-08T04:22:41.046Z,99.7
2015-12-08T04:23:40.971Z,99.3
2015-12-08T04:24:40.926Z,98.9
2015-12-08T04:25:40.851Z,98.7
2015-12-08T04:26:40.807Z,98.1
2015-12-08T04:27:40.748Z,98.4
2015-12-08T04:28:40.704Z,98.7
2015-12-08T04:29:40.644Z,99.5
2015-12-08T04:30:40.599Z,99.4
2015-12-08T04:31:40.570Z,99.5
2015-12-08T04:32:40.495Z,99.8
2015-12-08T04:33:40.436Z,99.9
2015-12-08T04:34:40.376Z,99.9
2015-12-08T04:35:40.331Z,99.5
2015-12-08T04:36:40.272Z,99.5
2015-12-08T04:37:40.212Z,99.2
2015-12-08T04:38:40.168Z,99.2
2015-12-08T04:39:40.108Z,98.1
2015-12-08T04:40:40.049Z,97.7
2015-12-08T04:41:40.020Z,96.7
2015-12-08T04:42:39.945Z,97.8
2015-12-08T04:43:39.901Z,98.1
2015-12-08T04:44:39.841Z,97.8
2015-12-08T04:45:39.797Z,97.6
2015-12-08T04:46:39.736Z,98.7
2015-12-08T04:47:39.677Z,98.3
2015-12-08T04:48:39.617Z,99.3
2015-12-08T04:49:39.777Z,98.3
2015-12-08T04:50:39.513Z,98.9
2015-12-08T04:51:39.454Z,99.4
2015-12-08T04:52:39.393Z,99.3
2015-12-08T04:53:39.335Z,99.5
2015-12-08T04:54:39.290Z,99.4
2015-12-08T04:55:39.246Z,99.9
2015-12-08T04:56:39.170Z,99.9
2015-12-08T04:57:39.111Z,99.9
2015-12-08T04:58:39.066Z,99.9
2015-12-08T04:59:39.007Z,99.9
2015-12-08T05:00:38.947Z,99.9
2015-12-08T05:01:38.902Z,99.9
2015-12-08T05:02:38.843Z,99.9
2015-12-08T05:03:38.799Z,99.9
2015-12-08T05:04:38.740Z,99.9
2015-12-08T05:05:38.695Z,99.3
2015-12-08T05:06:38.635Z,99.2
2015-12-08T05:07:38.575Z,99.7
2015-12-08T05:08:38.532Z,99.7
2015-12-08T05:09:38.471Z,99.8
2015-12-08T05:10:38.413Z,99.7
2015-12-08T05:11:38.368Z,99.3
2015-12-08T05:12:38.324Z,98.8
2015-12-08T05:13:38.248Z,99.1
2015-12-08T05:14:38.188Z,98.4
2015-12-08T05:15:38.145Z,97.5
2015-12-08T05:16:38.084Z,98.4
2015-12-08T05:17:38.022Z,99.4
2015-12-08T05:18:37.962Z,99
2015-12-08T05:19:37.918Z,98.8
2015-12-08T05:20:37.858Z,99.7
2015-12-08T05:21:37.798Z,99.6
2015-12-08T05:22:37.739Z,99
2015-12-08T05:23:37.695Z,98.4
2015-12-08T05:24:37.635Z,98.8
2015-12-08T05:25:37.576Z,98.5
2015-12-08T05:26:37.531Z,99
2015-12-08T05:27:37.471Z,98.5
2015-12-08T05:28:37.411Z,98.8
2015-12-08T05:29:37.352Z,98.7
2015-12-08T05:30:37.308Z,99.1
2015-12-08T05:31:37.264Z,98.4
2015-12-08T05:32:37.203Z,98.5
2015-12-08T05:33:36.395Z,99.5
2015-12-08T05:34:37.100Z,99.9
2015-12-08T05:35:37.040Z,98.8
2015-12-08T05:36:36.981Z,99
2015-12-08T05:37:36.937Z,99
2015-12-08T05:38:36.876Z,99.4
2015-12-08T05:39:36.817Z,99.7
2015-12-08T05:40:36.757Z,99.6
2015-12-08T05:41:36.713Z,99.1
2015-12-08T05:42:36.653Z,99.2
2015-12-08T05:43:36.594Z,98.9
2015-12-08T05:44:36.534Z,98.8
2015-12-08T05:45:36.475Z,98.5
2015-12-08T05:46:36.431Z,98.7
2015-12-08T05:47:36.370Z,99.4
2015-12-08T05:48:36.325Z,99.6
2015-12-08T05:49:36.267Z,99.2
2015-12-08T05:50:36.207Z,99.9
2015-12-08T05:51:36.147Z,99.9
2015-12-08T05:52:36.087Z,99.9
2015-12-08T05:53:36.042Z,99.9
2015-12-08T05:54:35.983Z,99.9
2015-12-08T05:55:36.158Z,99.9
2015-12-08T05:56:36.113Z,99.5
2015-12-08T05:57:35.819Z,99.2
2015-12-08T05:58:35.775Z,98.5
2015-12-08T05:59:35.716Z,98.5
2015-12-08T06:00:35.657Z,98.6
2015-12-08T06:01:35.613Z,98.3
2015-12-08T06:02:35.566Z,98.3
2015-12-08T06:03:35.506Z,97.9
2015-12-08T06:04:35.446Z,98
2015-12-08T06:05:35.386Z,97.6
2015-12-08T06:06:35.327Z,97.9
2015-12-08T06:07:35.283Z,98.1
2015-12-08T06:08:35.239Z,98.3
2015-12-08T06:09:35.194Z,99.9
2015-12-08T06:10:35.103Z,99.9
2015-12-08T06:11:35.059Z,99.9
2015-12-08T06:12:35.000Z,99.9
2015-12-08T06:13:34.939Z,99.9
2015-12-08T06:14:34.880Z,99.6
2015-12-08T06:15:34.820Z,99.2
2015-12-08T06:16:34.776Z,99.6
2015-12-08T06:17:34.731Z,99.1
2015-12-08T06:18:34.673Z,98.9
2015-12-08T06:19:34.612Z,99.6
2015-12-08T06:20:34.553Z,99.9
2015-12-08T06:21:34.493Z,99.9
2015-12-08T06:22:34.449Z,99.9
2015-12-08T06:23:34.389Z,99.9
2015-12-08T06:24:34.345Z,99.9
2015-12-08T06:25:34.285Z,99.9
2015-12-08T06:26:34.241Z,99.6
2015-12-08T06:27:34.180Z,99.6
2015-12-08T06:28:34.137Z,99.1
2015-12-08T06:29:34.077Z,99.5
2015-12-08T06:30:34.017Z,98.7
2015-12-08T06:31:33.958Z,98.5
2015-12-08T06:32:33.929Z,99
2015-12-08T06:33:33.855Z,99.3
2015-12-08T06:34:33.794Z,99.9
2015-12-08T06:35:33.735Z,99.6
2015-12-08T06:36:33.674Z,99.4
2015-12-08T06:37:33.615Z,99.1
2015-12-08T06:38:33.570Z,98.5
2015-12-08T06:39:33.511Z,98.3
2015-12-08T06:40:33.452Z,98.1
2015-12-08T06:41:33.391Z,97.2
2015-12-08T06:42:33.347Z,97.9
2015-12-08T06:43:33.287Z,98.3
2015-12-08T06:44:33.227Z,99
2015-12-08T06:45:33.183Z,99.6
2015-12-08T06:46:33.123Z,99.7
2015-12-08T06:47:33.063Z,98.9
2015-12-08T06:48:33.004Z,98
2015-12-08T06:49:32.960Z,98.3
2015-12-08T06:50:32.900Z,98.5
2015-12-08T06:51:32.841Z,98.5
2015-12-08T06:52:32.781Z,98.5
2015-12-08T06:53:32.737Z,98.2
2015-12-08T06:54:32.677Z,98.8
2015-12-08T06:55:32.632Z,99.7
2015-12-08T06:56:32.573Z,99.5
2015-12-08T06:57:32.529Z,99.3
2015-12-08T06:58:32.469Z,99
2015-12-08T06:59:32.440Z,98.1
2015-12-08T07:00:32.346Z,98.5
2015-12-08T07:01:32.303Z,98.7
2015-12-08T07:02:32.242Z,99.2
2015-12-08T07:03:32.167Z,99.7
2015-12-08T07:04:32.123Z,98.5
2015-12-08T07:05:32.063Z,98.6
2015-12-08T07:06:32.003Z,99.1
2015-12-08T07:07:32.178Z,98.7
2015-12-08T07:08:31.899Z,98
2015-12-08T07:09:31.840Z,98.3
2015-12-08T07:10:31.795Z,98
2015-12-08T07:11:31.720Z,96.6
2015-12-08T07:12:31.676Z,97.7
2015-12-08T07:13:31.617Z,98
2015-12-08T07:14:31.573Z,97.3
2015-12-08T07:15:31.512Z,97.7
2015-12-08T07:16:31.469Z,98.1
2015-12-08T07:17:31.408Z,98.3
2015-12-08T07:18:31.349Z,98.3
2015-12-08T07:19:31.288Z,98.6
2015-12-08T07:20:31.230Z,97.9
2015-12-08T07:21:31.186Z,98.2
2015-12-08T07:22:31.125Z,98.7
2015-12-08T07:23:31.066Z,98.7
2015-12-08T07:24:31.021Z,98.5
2015-12-08T07:25:30.961Z,99.7
2015-12-08T07:26:30.902Z,99.4
2015-12-08T07:27:30.841Z,99.4
2015-12-08T07:28:30.782Z,98.8
2015-12-08T07:29:30.722Z,98.2
2015-12-08T07:30:30.663Z,98.6
2015-12-08T07:31:30.619Z,98.7
2015-12-08T07:32:30.558Z,98.2
2015-12-08T07:33:30.503Z,97.5
2015-12-08T07:34:30.459Z,98.1
2015-12-08T07:35:30.414Z,97.8
2015-12-08T07:36:30.339Z,98.6
2015-12-08T07:37:30.279Z,98.8
2015-12-08T07:38:30.236Z,99.1
2015-12-08T07:39:29.441Z,99.4
2015-12-08T07:40:30.116Z,99.3
2015-12-08T07:41:30.056Z,99.1
2015-12-08T07:42:29.997Z,99.1
2015-12-08T07:43:29.952Z,99.2
2015-12-08T07:44:29.877Z,97.8
2015-12-08T07:45:29.816Z,96.8
2015-12-08T07:46:29.772Z,95.6
2015-12-08T07:47:29.713Z,94.6
2015-12-08T07:48:29.669Z,93.9
2015-12-08T07:49:29.609Z,91.2
2015-12-08T07:50:29.549Z,89.8
2015-12-08T07:51:29.505Z,89.8
2015-12-08T07:52:29.445Z,90.2
2015-12-08T07:53:29.385Z,89.2
2015-12-08T07:54:29.325Z,89.2
2015-12-08T07:55:29.282Z,88.7
2015-12-08T07:56:29.222Z,88.5
2015-12-08T07:57:29.177Z,88.4
2015-12-08T07:58:29.133Z,88.6
2015-12-08T07:59:29.073Z,89.8
2015-12-08T08:00:29.014Z,90.5
2015-12-08T08:01:28.954Z,91.5
2015-12-08T08:02:28.926Z,92.8
2015-12-08T08:03:28.850Z,92.4
2015-12-08T08:04:28.806Z,93
2015-12-08T08:05:28.746Z,92.7
2015-12-08T08:06:28.732Z,93.2
2015-12-08T08:07:28.642Z,93.5
2015-12-08T08:08:28.582Z,94.2
2015-12-08T08:09:28.523Z,94.8
2015-12-08T08:10:28.462Z,95.1
2015-12-08T08:11:28.637Z,94.9
2015-12-08T08:12:28.343Z,95.2
2015-12-08T08:13:28.299Z,94.5
2015-12-08T08:14:28.240Z,93.8
2015-12-08T08:15:28.179Z,90.2
2015-12-08T08:16:28.135Z,86
2015-12-08T08:17:28.076Z,83.6
2015-12-08T08:18:28.015Z,81.4
2015-12-08T08:19:27.972Z,80.5
2015-12-08T08:20:27.911Z,79.4
2015-12-08T08:21:27.915Z,79.2
2015-12-08T08:22:27.808Z,78.5
2015-12-08T08:23:27.764Z,76.9
2015-12-08T08:24:27.703Z,76.7
2015-12-08T08:25:27.659Z,75.2
2015-12-08T08:26:27.600Z,75
2015-12-08T08:27:27.555Z,75
2015-12-08T08:28:27.508Z,75
2015-12-08T08:29:27.433Z,75.6
2015-12-08T08:30:27.404Z,73.9
2015-12-08T08:31:27.360Z,73.3
2015-12-08T08:32:27.300Z,74
2015-12-08T08:33:27.240Z,73.4
2015-12-08T08:34:27.197Z,72.2
2015-12-08T08:35:27.137Z,72.2
2015-12-08T08:36:27.077Z,72.7
2015-12-08T08:37:27.252Z,72.3
2015-12-08T08:38:26.973Z,70.6
2015-12-08T08:39:26.929Z,69.1
2015-12-08T08:40:26.885Z,69.4
2015-12-08T08:41:26.824Z,69.6
2015-12-08T08:42:26.782Z,70.2
2015-12-08T08:43:26.721Z,69.8
2015-12-08T08:44:26.676Z,70
2015-12-08T08:45:26.633Z,69.5
2015-12-08T08:46:26.588Z,67.3
2015-12-08T08:47:26.547Z,66.4
2015-12-08T08:48:26.486Z,64.2
2015-12-08T08:49:26.443Z,63.7
2015-12-08T08:50:26.414Z,63.2
2015-12-08T08:51:26.336Z,63.7
2015-12-08T08:52:26.292Z,62.6
2015-12-08T08:53:26.232Z,62.9
2015-12-08T08:54:26.204Z,62.4
2015-12-08T08:55:26.128Z,62.9
2015-12-08T08:56:26.084Z,61.5
2015-12-08T08:57:26.042Z,62.4
2015-12-08T08:58:26.014Z,61.6
2015-12-08T08:59:25.954Z,61.6
2015-12-08T09:00:25.910Z,61.9
2015-12-08T09:01:25.847Z,61.7
2015-12-08T09:02:25.802Z,61.9
2015-12-08T09:03:25.758Z,60.1
2015-12-08T09:04:25.715Z,60.2
2015-12-08T09:05:25.655Z,59.5
2015-12-08T09:06:25.613Z,59.7
2015-12-08T09:07:25.569Z,58.8
2015-12-08T09:08:25.524Z,57.1
2015-12-08T09:09:25.481Z,57.7
2015-12-08T09:10:25.418Z,57.7
2015-12-08T09:11:25.373Z,57.4
2015-12-08T09:12:25.329Z,56.4
2015-12-08T09:13:25.270Z,57.4
2015-12-08T09:14:25.228Z,56.9
2015-12-08T09:15:25.184Z,57.6
2015-12-08T09:16:25.140Z,56.5
2015-12-08T09:17:25.080Z,55.2
2015-12-08T09:18:25.033Z,55.3
2015-12-08T09:19:24.990Z,55.2
2015-12-08T09:20:24.929Z,54.5
2015-12-08T09:21:24.888Z,57.3
2015-12-08T09:22:24.844Z,57.4
2015-12-08T09:23:24.783Z,57.5
2015-12-08T09:24:24.739Z,57.9
2015-12-08T09:25:24.695Z,58.3
2015-12-08T09:26:24.649Z,58
2015-12-08T09:27:24.605Z,58
2015-12-08T09:28:24.561Z,56.9
2015-12-08T09:29:24.487Z,56.1
2015-12-08T09:30:24.443Z,54.7
2015-12-08T09:31:24.398Z,54.4
2015-12-08T09:32:24.354Z,53.3
2015-12-08T09:33:24.296Z,53.1
2015-12-08T09:34:24.251Z,53.9
2015-12-08T09:35:24.191Z,52.7
2015-12-08T09:36:24.147Z,53.2
2015-12-08T09:37:24.102Z,54.6
2015-12-08T09:38:24.050Z,56
2015-12-08T09:39:24.003Z,55.5
2015-12-08T09:40:23.947Z,55
2015-12-08T09:41:23.877Z,54.1
2015-12-08T09:42:23.820Z,53.2
2015-12-08T09:43:23.781Z,53
2015-12-08T09:44:23.703Z,52.7
2015-12-08T09:45:23.670Z,53.5
2015-12-08T09:46:23.606Z,54.2
2015-12-08T09:47:23.543Z,54
2015-12-08T09:48:23.495Z,53
2015-12-08T09:49:23.449Z,53.2
2015-12-08T09:50:23.403Z,52.4
2015-12-08T09:51:23.357Z,51.5
2015-12-08T09:52:23.311Z,52.2
2015-12-08T09:53:23.268Z,51.9
2015-12-08T09:54:23.206Z,52.2
2015-12-08T09:55:23.162Z,51.8
2015-12-08T09:56:23.117Z,52.2
2015-12-08T09:57:23.058Z,52.8
2015-12-08T09:58:23.013Z,55.6
2015-12-08T09:59:23.016Z,59.1
2015-12-08T10:00:22.908Z,63.2
2015-12-08T10:01:22.865Z,66.2
2015-12-08T10:02:22.820Z,66.2
2015-12-08T10:03:22.759Z,69.5
2015-12-08T10:04:22.715Z,70.8
2015-12-08T10:05:22.671Z,70.3
2015-12-08T10:06:22.596Z,73.1
2015-12-08T10:07:22.552Z,72.4
2015-12-08T10:08:22.508Z,73.2
2015-12-08T10:09:22.683Z,72.8
2015-12-08T10:10:22.403Z,73
2015-12-08T10:11:22.345Z,73.8
2015-12-08T10:12:22.300Z,74.2
2015-12-08T10:13:22.271Z,74.3
2015-12-08T10:14:22.208Z,71.5
2015-12-08T10:15:22.149Z,66.3
2015-12-08T10:16:22.105Z,61.4
2015-12-08T10:17:22.061Z,57.5
2015-12-08T10:18:22.017Z,54.9
2015-12-08T10:19:21.973Z,53.4
2015-12-08T10:20:21.913Z,52.6
2015-12-08T10:21:21.119Z,52.6
2015-12-08T10:22:21.824Z,52.4
2015-12-08T10:23:21.765Z,53
2015-12-08T10:24:21.721Z,54
2015-12-08T10:25:21.676Z,54.3
2015-12-08T10:26:21.647Z,52.9
2015-12-08T10:27:21.588Z,51
2015-12-08T10:28:21.560Z,50.7
2015-12-08T10:29:21.499Z,50.3
2015-12-08T10:30:21.455Z,50.3
2015-12-08T10:31:21.413Z,48.9
2015-12-08T10:32:21.370Z,48.9
2015-12-08T10:33:21.325Z,48.1
2015-12-08T10:34:21.281Z,47.7
2015-12-08T10:35:21.234Z,47.1
2015-12-08T10:36:21.189Z,47.9
2015-12-08T10:37:21.145Z,48.9
2015-12-08T10:38:21.101Z,47.6
2015-12-08T10:39:21.057Z,48.7
2015-12-08T10:40:20.998Z,52
2015-12-08T10:41:21.031Z,56.9
2015-12-08T10:42:20.909Z,60.8
2015-12-08T10:43:20.881Z,64.8
2015-12-08T10:44:20.805Z,67.3
2015-12-08T10:45:20.777Z,69.7
2015-12-08T10:46:20.704Z,71.7
2015-12-08T10:47:20.660Z,73.4
2015-12-08T10:48:20.600Z,73.1
2015-12-08T10:49:20.571Z,74
2015-12-08T10:50:20.493Z,74.1
2015-12-08T10:51:20.449Z,74.8
2015-12-08T10:52:20.389Z,75.3
2015-12-08T10:53:20.345Z,74.1
2015-12-08T10:54:20.410Z,72.7
2015-12-08T10:55:20.258Z,68.1
2015-12-08T10:56:20.199Z,61.7
2015-12-08T10:57:20.171Z,57.7
2015-12-08T10:58:20.096Z,54.4
2015-12-08T10:59:20.067Z,52.7
2015-12-08T11:00:20.053Z,51.8
2015-12-08T11:01:19.959Z,51.1
2015-12-08T11:02:19.932Z,50.7
2015-12-08T11:03:19.871Z,49.7
2015-12-08T11:04:19.829Z,48.9
2015-12-08T11:05:19.799Z,49.5
2015-12-08T11:06:19.742Z,48.7
2015-12-08T11:07:19.681Z,49.8
2015-12-08T11:08:19.653Z,52.7
2015-12-08T11:09:19.609Z,56.7
2015-12-08T11:10:19.547Z,60.9
2015-12-08T11:11:19.503Z,63.8
2015-12-08T11:12:19.443Z,65
2015-12-08T11:13:19.398Z,66.7
2015-12-08T11:14:19.338Z,69.1
2015-12-08T11:15:18.545Z,69.8
2015-12-08T11:16:19.250Z,69.4
2015-12-08T11:17:19.192Z,70.5
2015-12-08T11:18:19.149Z,70.2
2015-12-08T11:19:19.121Z,67.1
2015-12-08T11:20:19.060Z,62.9
2015-12-08T11:21:19.001Z,59.9
2015-12-08T11:22:18.941Z,58.4
2015-12-08T11:23:18.894Z,58.3
2015-12-08T11:24:18.850Z,58.9
2015-12-08T11:25:18.806Z,62.3
2015-12-08T11:26:19.967Z,66
2015-12-08T11:27:18.545Z,66.2
2015-12-08T11:28:18.659Z,67.9
2015-12-08T11:29:18.601Z,68.5
2015-12-08T11:30:18.556Z,69.3
2015-12-08T11:31:18.496Z,69.9
2015-12-08T11:32:18.451Z,70.2
2015-12-08T11:33:18.392Z,71.1
2015-12-08T11:34:18.348Z,70.8
2015-12-08T11:35:18.304Z,70.8
2015-12-08T11:36:18.260Z,69.4
2015-12-08T11:37:18.198Z,66.8
2015-12-08T11:38:18.137Z,63.6
2015-12-08T11:39:18.093Z,60.6
2015-12-08T11:40:18.052Z,58.5
2015-12-08T11:41:18.023Z,56.7
2015-12-08T11:42:17.948Z,56.3
2015-12-08T11:43:17.903Z,56
2015-12-08T11:44:17.859Z,56.7
2015-12-08T11:45:17.816Z,56.9
2015-12-08T11:46:17.818Z,57.2
2015-12-08T11:47:17.708Z,57.6
2015-12-08T11:48:17.664Z,57.9
2015-12-08T11:49:17.619Z,57.6
2015-12-08T11:50:17.578Z,57.2
2015-12-08T11:51:17.535Z,57.1
2015-12-08T11:52:17.474Z,54.8
2015-12-08T11:53:17.430Z,53
2015-12-08T11:54:17.402Z,51.8
2015-12-08T11:55:17.342Z,49.7
2015-12-08T11:56:17.298Z,50.7
2015-12-08T11:57:17.251Z,52.8
2015-12-08T11:58:17.191Z,52.5
2015-12-08T11:59:17.146Z,51.8
2015-12-08T12:00:16.984Z,51
2015-12-08T12:01:17.066Z,50.2
2015-12-08T12:02:17.022Z,50
2015-12-08T12:03:16.978Z,50.1
2015-12-08T12:04:16.933Z,51.8
2015-12-08T12:05:16.889Z,54.8
2015-12-08T12:06:16.845Z,57.2
2015-12-08T12:07:16.783Z,57.2
2015-12-08T12:08:16.583Z,55
2015-12-08T12:09:16.697Z,52.3
2015-12-08T12:10:16.652Z,50
2015-12-08T12:11:16.607Z,48.9
2015-12-08T12:12:16.549Z,49.2
2015-12-08T12:13:16.520Z,48.2
2015-12-08T12:14:16.477Z,47.7
2015-12-08T12:15:16.432Z,47.5
2015-12-08T12:16:16.403Z,47.9
2015-12-08T12:17:16.341Z,49.5
2015-12-08T12:18:16.312Z,52.6
2015-12-08T12:19:16.237Z,54.2
2015-12-08T12:20:16.209Z,53.8
2015-12-08T12:21:16.151Z,53.8
2015-12-08T12:22:16.106Z,53
2015-12-08T12:23:16.063Z,54
2015-12-08T12:24:16.018Z,54
2015-12-08T12:25:15.974Z,54.8
2015-12-08T12:26:15.930Z,54.9
2015-12-08T12:27:15.884Z,55
2015-12-08T12:28:15.840Z,54.5
2015-12-08T12:29:15.779Z,54.9
2015-12-08T12:30:15.737Z,55.1
2015-12-08T12:31:15.691Z,56.6
2015-12-08T12:32:15.648Z,56.9
2015-12-08T12:33:15.589Z,57.6
2015-12-08T12:34:15.545Z,57.3
2015-12-08T12:35:15.501Z,57.8
2015-12-08T12:36:15.457Z,58.2
2015-12-08T12:37:15.411Z,58.1
2015-12-08T12:38:15.350Z,59.5
2015-12-08T12:39:15.306Z,60
2015-12-08T12:40:15.262Z,60
2015-12-08T12:41:15.219Z,60.5
2015-12-08T12:42:15.160Z,60.8
2015-12-08T12:43:15.116Z,61.1
2015-12-08T12:44:15.072Z,63.1
2015-12-08T12:45:15.028Z,63
2015-12-08T12:46:14.966Z,62
2015-12-08T12:47:14.938Z,62.4
2015-12-08T12:48:14.877Z,62.8
2015-12-08T12:49:14.818Z,61.9
2015-12-08T12:50:14.775Z,62.4
2015-12-08T12:51:14.747Z,63.3
2015-12-08T12:52:14.687Z,63.5
2015-12-08T12:53:14.643Z,62.7
2015-12-08T12:54:14.583Z,62.7
2015-12-08T12:55:14.536Z,61
2015-12-08T12:56:14.493Z,60.9
2015-12-08T12:57:13.699Z,61.2
2015-12-08T12:58:14.404Z,61.2
2015-12-08T12:59:14.345Z,61.2
2015-12-08T13:00:14.318Z,60.5
2015-12-08T13:01:14.243Z,61
2015-12-08T13:02:14.184Z,61
2015-12-08T13:03:14.139Z,60.9
2015-12-08T13:04:14.095Z,60.8
2015-12-08T13:05:14.048Z,61.6
2015-12-08T13:06:14.003Z,61.4
2015-12-08T13:07:13.209Z,60.6
2015-12-08T13:08:13.902Z,60.2
2015-12-08T13:09:13.858Z,60
2015-12-08T13:10:13.814Z,59.6
2015-12-08T13:11:13.769Z,59.7
2015-12-08T13:12:13.725Z,59.2
2015-12-08T13:13:13.678Z,59.6
2015-12-08T13:14:13.619Z,60.5
2015-12-08T13:15:13.559Z,61.3
2015-12-08T13:16:13.530Z,61.6
2015-12-08T13:17:13.488Z,62.8
2015-12-08T13:18:13.429Z,62.5
2015-12-08T13:19:13.385Z,63.1
2015-12-08T13:20:13.324Z,63
2015-12-08T13:21:13.281Z,63.5
2015-12-08T13:22:13.234Z,63.8